Time;durP1;ratioP1;P1;durP2;ratioP2;P2;SDS_P1;SDS_P2;PMS_P1;PMS_P2;Temp;Humidity;BMP_temperature;BMP_pressure;BME280_temperature;BME280_humidity;BME280_pressure;Samples;Min_cycle;Max_cycle;Signal;HPM_P1;HPM_P2
2022/11/06 00:00:59;;;;;;;11.82;6.07;;;;;;;;;;4919894;29;20043;-76
2022/11/06 00:03:25;;;;;;;10.10;5.15;;;;;;;;;;4919055;29;20127;-76
2022/11/06 00:08:37;;;;;;;17.85;9.77;;;;;;;;;;4917377;29;20119;-76
2022/11/06 00:11:14;;;;;;;10.65;5.70;;;;;;;;;;4918552;29;20598;-76
2022/11/06 00:13:41;;;;;;;9.77;5.60;;;;;;;;;;4918777;29;20114;-78
2022/11/06 00:16:08;;;;;;;9.88;5.38;;;;;;;;;;4919143;29;20533;-76
2022/11/06 00:18:34;;;;;;;12.05;6.20;;;;;;;;;;4918677;29;20111;-76
2022/11/06 00:21:11;;;;;;;16.88;7.38;;;;;;;;;;4917966;29;20058;-76
2022/11/06 00:23:37;;;;;;;12.52;6.20;;;;;;;;;;4918852;29;20404;-75
2022/11/06 00:26:07;;;;;;;15.38;6.18;;;;;;;;;;4917886;29;20051;-76
2022/11/06 00:28:33;;;;;;;11.87;5.57;;;;;;;;;;4917648;29;20467;-77
2022/11/06 00:31:07;;;;;;;12.35;5.82;;;;;;;;;;4919515;29;20118;-76
2022/11/06 00:33:33;;;;;;;11.95;5.90;;;;;;;;;;4917280;29;20052;-76
2022/11/06 00:36:02;;;;;;;9.52;5.43;;;;;;;;;;4919424;29;20054;-76
2022/11/06 00:38:28;;;;;;;9.68;5.18;;;;;;;;;;4919011;29;20100;-76
2022/11/06 00:40:54;;;;;;;13.93;5.93;;;;;;;;;;4918246;29;20202;-76
2022/11/06 00:43:20;;;;;;;17.35;7.68;;;;;;;;;;4918254;29;20134;-77
2022/11/06 00:45:46;;;;;;;13.15;7.10;;;;;;;;;;4918685;29;20111;-76
2022/11/06 00:48:12;;;;;;;14.32;7.25;;;;;;;;;;4918176;29;20040;-76
2022/11/06 00:50:38;;;;;;;12.73;5.28;;;;;;;;;;4918762;29;20040;-76
2022/11/06 00:53:04;;;;;;;9.98;4.68;;;;;;;;;;4918878;29;20118;-77
2022/11/06 00:55:30;;;;;;;11.00;4.30;;;;;;;;;;4918932;29;20055;-77
2022/11/06 00:57:57;;;;;;;15.43;5.55;;;;;;;;;;4916692;29;20504;-76
2022/11/06 01:00:23;;;;;;;10.98;5.53;;;;;;;;;;4917965;29;20036;-76
2022/11/06 01:02:49;;;;;;;13.95;5.93;;;;;;;;;;4918612;29;20043;-76
2022/11/06 01:05:15;;;;;;;12.70;5.13;;;;;;;;;;4918384;29;20090;-77
2022/11/06 01:07:42;;;;;;;9.85;4.50;;;;;;;;;;4918427;29;20048;-77
2022/11/06 01:10:08;;;;;;;7.10;3.67;;;;;;;;;;4918890;29;20051;-76
2022/11/06 01:12:35;;;;;;;8.18;3.50;;;;;;;;;;4918599;29;20048;-76
2022/11/06 01:15:01;;;;;;;8.57;3.90;;;;;;;;;;4918732;29;20047;-77
2022/11/06 01:17:27;;;;;;;9.60;5.22;;;;;;;;;;4918985;29;20047;-77
2022/11/06 01:19:53;;;;;;;13.38;7.10;;;;;;;;;;4918821;29;20050;-76
2022/11/06 01:22:20;;;;;;;11.30;6.03;;;;;;;;;;4918835;29;20048;-77
2022/11/06 01:24:46;;;;;;;11.07;5.55;;;;;;;;;;4918675;29;20055;-77
2022/11/06 01:27:12;;;;;;;11.13;5.65;;;;;;;;;;4919120;29;20547;-76
2022/11/06 01:29:38;;;;;;;8.32;3.90;;;;;;;;;;4918281;29;20459;-76
2022/11/06 01:32:05;;;;;;;11.63;6.75;;;;;;;;;;4918232;29;20086;-76
2022/11/06 01:34:31;;;;;;;10.68;6.45;;;;;;;;;;4918411;29;20036;-76
2022/11/06 01:36:57;;;;;;;12.95;6.05;;;;;;;;;;4918475;29;20488;-76
2022/11/06 01:39:23;;;;;;;10.93;6.00;;;;;;;;;;4918700;29;20488;-76
2022/11/06 01:41:50;;;;;;;11.15;5.68;;;;;;;;;;4918288;29;20067;-76
2022/11/06 01:44:34;;;;;;;8.82;4.63;;;;;;;;;;4919045;29;20072;-76
2022/11/06 01:47:02;;;;;;;5.30;3.35;;;;;;;;;;4918886;29;20052;-76
2022/11/06 01:49:30;;;;;;;8.43;3.53;;;;;;;;;;4918546;29;20044;-77
2022/11/06 01:51:58;;;;;;;6.50;3.33;;;;;;;;;;4918547;29;20052;-76
2022/11/06 01:54:26;;;;;;;7.97;3.63;;;;;;;;;;4918775;29;20187;-76
2022/11/06 01:56:54;;;;;;;9.52;4.30;;;;;;;;;;4918369;29;20411;-76
2022/11/06 01:59:21;;;;;;;7.55;4.70;;;;;;;;;;4918942;29;20043;-76
2022/11/06 02:01:48;;;;;;;7.47;3.40;;;;;;;;;;4918189;29;20044;-76
2022/11/06 02:04:16;;;;;;;6.63;3.30;;;;;;;;;;4918628;29;20051;-76
2022/11/06 02:06:43;;;;;;;7.53;3.83;;;;;;;;;;4918345;29;20051;-76
2022/11/06 02:09:11;;;;;;;8.27;3.72;;;;;;;;;;4920929;29;20075;-77
2022/11/06 02:11:40;;;;;;;10.70;4.38;;;;;;;;;;4922095;29;20040;-76
2022/11/06 02:14:19;;;;;;;9.88;3.95;;;;;;;;;;4922434;29;20043;-76
2022/11/06 02:16:48;;;;;;;7.65;3.63;;;;;;;;;;4922795;29;20491;-76
2022/11/06 02:19:29;;;;;;;10.75;3.95;;;;;;;;;;4922072;29;20044;-76
2022/11/06 02:22:05;;;;;;;7.00;3.05;;;;;;;;;;4922115;29;20044;-76
2022/11/06 02:24:49;;;;;;;14.27;3.08;;;;;;;;;;4922294;29;20048;-76
2022/11/06 02:27:21;;;;;;;8.15;2.80;;;;;;;;;;4922000;29;20043;-77
2022/11/06 02:29:50;;;;;;;7.70;3.30;;;;;;;;;;4921769;29;20107;-76
2022/11/06 02:32:20;;;;;;;6.20;2.97;;;;;;;;;;4922001;29;20098;-76
2022/11/06 02:34:47;;;;;;;10.27;2.70;;;;;;;;;;4921622;29;20054;-76
2022/11/06 02:37:16;;;;;;;6.78;2.35;;;;;;;;;;4922142;29;20132;-76
2022/11/06 02:39:44;;;;;;;6.50;2.78;;;;;;;;;;4921609;29;20076;-76
2022/11/06 02:42:11;;;;;;;6.07;2.53;;;;;;;;;;4921668;29;20542;-76
2022/11/06 02:44:38;;;;;;;5.97;3.13;;;;;;;;;;4921803;29;20047;-76
2022/11/06 02:47:07;;;;;;;8.40;2.95;;;;;;;;;;4921737;29;20086;-77
2022/11/06 02:49:46;;;;;;;5.18;3.03;;;;;;;;;;4921794;29;20052;-77
2022/11/06 02:52:20;;;;;;;8.18;3.40;;;;;;;;;;4921585;29;20043;-77
2022/11/06 02:54:49;;;;;;;8.57;3.20;;;;;;;;;;4921119;29;20068;-77
2022/11/06 02:57:17;;;;;;;7.43;2.67;;;;;;;;;;4921796;29;20040;-76
2022/11/06 02:59:43;;;;;;;4.30;2.17;;;;;;;;;;4921671;29;20048;-76
2022/11/06 03:02:15;;;;;;;4.55;2.20;;;;;;;;;;4921152;29;20047;-76
2022/11/06 03:04:46;;;;;;;4.63;2.30;;;;;;;;;;4922073;29;20044;-77
2022/11/06 03:07:12;;;;;;;;;;;;;;;;;;4922360;29;20108;-77
2022/11/06 03:09:38;;;;;;;9.50;2.55;;;;;;;;;;4920615;29;20446;-76
2022/11/06 03:12:24;;;;;;;3.97;2.30;;;;;;;;;;4921251;29;20044;-76
2022/11/06 03:14:56;;;;;;;6.50;2.53;;;;;;;;;;4920829;29;20484;-76
2022/11/06 03:17:42;;;;;;;3.83;2.35;;;;;;;;;;4921219;29;20091;-77
2022/11/06 03:20:17;;;;;;;10.57;3.40;;;;;;;;;;4919996;29;20052;-77
2022/11/06 03:22:51;;;;;;;6.30;3.13;;;;;;;;;;4920849;29;20126;-76
2022/11/06 03:25:17;;;;;;;9.52;3.35;;;;;;;;;;4920749;29;20056;-76
2022/11/06 03:27:49;;;;;;;4.47;2.15;;;;;;;;;;4921004;29;20044;-77
2022/11/06 03:30:16;;;;;;;5.00;2.75;;;;;;;;;;4920410;29;20428;-76
2022/11/06 03:32:45;;;;;;;6.80;2.63;;;;;;;;;;4920896;29;20036;-76
2022/11/06 03:35:11;;;;;;;7.13;2.95;;;;;;;;;;4920863;29;20185;-77
2022/11/06 03:37:42;;;;;;;3.90;2.47;;;;;;;;;;4921144;29;20568;-77
2022/11/06 03:40:11;;;;;;;6.80;2.65;;;;;;;;;;4920494;29;20079;-77
2022/11/06 03:42:39;;;;;;;4.45;2.38;;;;;;;;;;4920564;29;20060;-77
2022/11/06 03:45:11;;;;;;;9.55;3.15;;;;;;;;;;4920526;29;20052;-76
2022/11/06 03:47:40;;;;;;;5.85;2.58;;;;;;;;;;4920358;29;20052;-77
2022/11/06 03:50:15;;;;;;;4.45;2.63;;;;;;;;;;4920141;29;20047;-77
2022/11/06 03:53:03;;;;;;;7.55;3.17;;;;;;;;;;4919954;29;20044;-76
2022/11/06 03:55:34;;;;;;;6.55;3.00;;;;;;;;;;4919677;29;20052;-76
2022/11/06 03:58:06;;;;;;;6.78;3.42;;;;;;;;;;4920757;29;20055;-76
2022/11/06 04:00:33;;;;;;;5.68;2.95;;;;;;;;;;4919871;29;20044;-76
2022/11/06 04:03:05;;;;;;;7.20;3.10;;;;;;;;;;4920140;29;20040;-77
2022/11/06 04:05:37;;;;;;;6.68;2.70;;;;;;;;;;4919847;29;20048;-77
2022/11/06 04:16:21;;;;;;;5.32;2.10;;;;;;;;;;4919361;29;20051;-76
2022/11/06 04:18:47;;;;;;;4.40;1.83;;;;;;;;;;4920033;29;20492;-76
2022/11/06 04:21:24;;;;;;;4.43;2.30;;;;;;;;;;4920037;29;20076;-76
2022/11/06 04:26:34;;;;;;;4.47;1.75;;;;;;;;;;4920514;29;20051;-76
2022/11/06 04:26:47;;;;;;;4.13;1.85;;;;;;;;;;4918884;29;20056;-76
2022/11/06 04:29:30;;;;;;;4.90;1.55;;;;;;;;;;4920074;29;20107;-77
2022/11/06 04:32:12;;;;;;;4.00;2.17;;;;;;;;;;4919297;29;20062;-76
2022/11/06 04:34:44;;;;;;;3.90;2.38;;;;;;;;;;4919409;29;20123;-76
2022/11/06 04:37:16;;;;;;;7.10;2.55;;;;;;;;;;4919442;29;20052;-77
2022/11/06 04:40:01;;;;;;;7.25;3.10;;;;;;;;;;4919465;29;20048;-77
2022/11/06 04:42:27;;;;;;;7.50;3.38;;;;;;;;;;4919570;29;20177;-76
2022/11/06 04:44:57;;;;;;;2.45;1.25;;;;;;;;;;4919541;29;20048;-76
2022/11/06 04:47:24;;;;;;;3.97;1.70;;;;;;;;;;4919655;29;20059;-76
2022/11/06 04:49:53;;;;;;;2.75;1.50;;;;;;;;;;4919584;29;20098;-76
2022/11/06 04:52:26;;;;;;;4.50;1.63;;;;;;;;;;4919379;29;20048;-76
2022/11/06 04:54:53;;;;;;;4.70;1.75;;;;;;;;;;4918968;29;20044;-76
2022/11/06 04:57:19;;;;;;;4.70;1.98;;;;;;;;;;4919395;29;20051;-76
2022/11/06 04:59:45;;;;;;;8.90;3.33;;;;;;;;;;4919680;29;20151;-76
2022/11/06 05:02:11;;;;;;;7.10;3.05;;;;;;;;;;4919444;29;20067;-76
2022/11/06 05:04:37;;;;;;;3.97;2.65;;;;;;;;;;4919206;29;20492;-76
2022/11/06 05:07:03;;;;;;;5.20;2.75;;;;;;;;;;4919190;29;20051;-77
2022/11/06 05:09:30;;;;;;;5.97;2.80;;;;;;;;;;4918860;29;20099;-76
2022/11/06 05:11:56;;;;;;;6.30;2.53;;;;;;;;;;4919136;29;20036;-77
2022/11/06 05:14:22;;;;;;;5.28;2.75;;;;;;;;;;4918781;29;20044;-76
2022/11/06 05:16:48;;;;;;;5.97;2.50;;;;;;;;;;4919068;29;20071;-76
2022/11/06 05:19:14;;;;;;;4.53;2.80;;;;;;;;;;4919649;29;20150;-76
2022/11/06 05:24:26;;;;;;;4.50;2.35;;;;;;;;;;4918283;29;20043;-76
2022/11/06 05:26:52;;;;;;;4.00;1.63;;;;;;;;;;4918858;29;20573;-76
2022/11/06 05:29:18;;;;;;;2.33;1.65;;;;;;;;;;4919343;29;20040;-76
2022/11/06 05:31:44;;;;;;;3.10;1.30;;;;;;;;;;4919078;29;20036;-77
2022/11/06 05:34:10;;;;;;;4.70;2.13;;;;;;;;;;4918529;29;20483;-76
2022/11/06 05:36:36;;;;;;;5.78;1.70;;;;;;;;;;4918745;29;20048;-76
2022/11/06 05:39:03;;;;;;;5.65;1.67;;;;;;;;;;4918625;29;20052;-76
2022/11/06 05:41:29;;;;;;;8.10;2.38;;;;;;;;;;4918812;29;20040;-77
2022/11/06 05:43:56;;;;;;;6.85;2.88;;;;;;;;;;4918059;29;20044;-76
2022/11/06 05:46:22;;;;;;;9.10;3.13;;;;;;;;;;4918317;29;20518;-76
2022/11/06 05:48:48;;;;;;;6.70;3.30;;;;;;;;;;4918627;29;20074;-76
2022/11/06 05:51:14;;;;;;;6.88;3.60;;;;;;;;;;4918043;29;20044;-76
2022/11/06 05:53:41;;;;;;;5.72;3.15;;;;;;;;;;4918010;29;20102;-76
2022/11/06 05:56:07;;;;;;;4.03;2.08;;;;;;;;;;4917836;29;20139;-76
2022/11/06 05:58:33;;;;;;;3.65;1.90;;;;;;;;;;4918267;29;20048;-76
2022/11/06 06:00:59;;;;;;;5.00;1.95;;;;;;;;;;4918173;29;20044;-76
2022/11/06 06:03:26;;;;;;;5.13;2.38;;;;;;;;;;4917918;29;20492;-76
2022/11/06 06:05:52;;;;;;;5.78;2.47;;;;;;;;;;4918127;29;20139;-76
2022/11/06 06:08:18;;;;;;;5.18;2.60;;;;;;;;;;4918186;29;20040;-76
2022/11/06 06:10:45;;;;;;;5.80;2.97;;;;;;;;;;4917829;29;20051;-76
2022/11/06 06:13:12;;;;;;;4.13;2.35;;;;;;;;;;4917842;29;20040;-76
2022/11/06 06:15:38;;;;;;;5.00;2.50;;;;;;;;;;4918129;29;20057;-76
2022/11/06 06:18:05;;;;;;;3.33;2.03;;;;;;;;;;4918117;29;20118;-76
2022/11/06 06:20:31;;;;;;;3.22;2.08;;;;;;;;;;4917653;29;20534;-76
2022/11/06 06:22:58;;;;;;;5.47;2.47;;;;;;;;;;4918342;29;20183;-76
2022/11/06 06:25:24;;;;;;;6.35;2.45;;;;;;;;;;4917502;29;20217;-76
2022/11/06 06:27:51;;;;;;;3.72;2.50;;;;;;;;;;4917739;29;20044;-77
2022/11/06 06:30:17;;;;;;;4.85;2.53;;;;;;;;;;4917972;29;20040;-76
2022/11/06 06:32:43;;;;;;;5.25;2.20;;;;;;;;;;4918002;29;20036;-76
2022/11/06 06:35:10;;;;;;;6.03;2.75;;;;;;;;;;4918106;29;20500;-76
2022/11/06 06:37:36;;;;;;;6.05;2.25;;;;;;;;;;4917842;29;20032;-77
2022/11/06 06:40:02;;;;;;;7.05;2.40;;;;;;;;;;4917332;29;20531;-76
2022/11/06 06:42:29;;;;;;;6.40;2.75;;;;;;;;;;4917890;29;20083;-76
2022/11/06 06:44:55;;;;;;;4.55;2.80;;;;;;;;;;4917750;29;20497;-77
2022/11/06 06:47:21;;;;;;;8.00;3.22;;;;;;;;;;4918150;29;20043;-77
2022/11/06 06:49:47;;;;;;;6.32;3.17;;;;;;;;;;4918409;29;20555;-77
2022/11/06 06:52:13;;;;;;;6.65;3.05;;;;;;;;;;4918092;29;20036;-76
2022/11/06 06:54:39;;;;;;;6.20;3.13;;;;;;;;;;4919448;29;20082;-76
2022/11/06 06:57:07;;;;;;;4.30;3.22;;;;;;;;;;4921679;29;20080;-76
2022/11/06 06:59:33;;;;;;;7.40;3.55;;;;;;;;;;4921171;29;20381;-76
2022/11/06 07:01:59;;;;;;;8.60;4.03;;;;;;;;;;4921467;29;20488;-77
2022/11/06 07:04:25;;;;;;;7.80;3.58;;;;;;;;;;4921102;29;20044;-76
2022/11/06 07:06:55;;;;;;;7.32;3.25;;;;;;;;;;4921330;29;20048;-76
2022/11/06 07:09:22;;;;;;;5.97;2.97;;;;;;;;;;4921461;29;20081;-77
2022/11/06 07:11:48;;;;;;;8.77;3.75;;;;;;;;;;4921007;29;20127;-76
2022/11/06 07:14:15;;;;;;;7.07;4.10;;;;;;;;;;4921200;29;20051;-76
2022/11/06 07:16:41;;;;;;;11.98;4.57;;;;;;;;;;4921035;29;20496;-76
2022/11/06 07:19:07;;;;;;;9.18;5.20;;;;;;;;;;4921811;29;20094;-77
2022/11/06 07:21:33;;;;;;;7.63;3.80;;;;;;;;;;4921113;29;20071;-76
2022/11/06 07:23:59;;;;;;;7.32;4.40;;;;;;;;;;4921277;29;20047;-76
2022/11/06 07:26:26;;;;;;;10.77;4.10;;;;;;;;;;4921059;29;20056;-76
2022/11/06 07:28:52;;;;;;;7.88;4.20;;;;;;;;;;4920959;29;20040;-76
2022/11/06 07:31:18;;;;;;;8.32;3.58;;;;;;;;;;4920673;29;20048;-76
2022/11/06 07:33:44;;;;;;;7.25;3.55;;;;;;;;;;4921121;29;20044;-76
2022/11/06 07:36:12;;;;;;;5.00;3.00;;;;;;;;;;4921355;29;20087;-76
2022/11/06 07:38:39;;;;;;;4.53;2.53;;;;;;;;;;4920322;29;20566;-76
2022/11/06 07:41:06;;;;;;;9.38;3.80;;;;;;;;;;4920305;29;20048;-77
2022/11/06 07:43:33;;;;;;;8.10;3.35;;;;;;;;;;4920555;29;20526;-77
2022/11/06 07:46:03;;;;;;;3.45;2.63;;;;;;;;;;4920032;29;20138;-76
2022/11/06 07:48:29;;;;;;;4.95;2.40;;;;;;;;;;4920229;29;20126;-76
2022/11/06 07:50:56;;;;;;;4.78;2.70;;;;;;;;;;4920294;29;20123;-77
2022/11/06 07:53:22;;;;;;;3.85;2.78;;;;;;;;;;4920232;29;20123;-76
2022/11/06 07:55:52;;;;;;;12.38;3.05;;;;;;;;;;4920126;29;20207;-76
2022/11/06 07:58:19;;;;;;;4.05;2.45;;;;;;;;;;4920260;29;20055;-77
2022/11/06 08:00:49;;;;;;;7.90;2.78;;;;;;;;;;4920925;29;20040;-76
2022/11/06 08:03:15;;;;;;;3.57;2.43;;;;;;;;;;4920118;29;20082;-76
2022/11/06 08:05:41;;;;;;;3.53;2.45;;;;;;;;;;4919357;29;20300;-76
2022/11/06 08:08:08;;;;;;;4.60;2.08;;;;;;;;;;4920575;29;20099;-77
2022/11/06 08:10:36;;;;;;;3.60;2.38;;;;;;;;;;4919653;29;20051;-76
2022/11/06 08:13:02;;;;;;;4.68;2.17;;;;;;;;;;4919568;29;20037;-76
2022/11/06 08:15:29;;;;;;;4.25;2.10;;;;;;;;;;4919756;29;20047;-76
2022/11/06 08:17:55;;;;;;;6.78;2.00;;;;;;;;;;4919695;29;20503;-76
2022/11/06 08:20:21;;;;;;;21.00;2.95;;;;;;;;;;4919881;29;20048;-76
2022/11/06 08:22:47;;;;;;;5.07;2.20;;;;;;;;;;4919335;29;20044;-76
2022/11/06 08:25:13;;;;;;;5.93;2.80;;;;;;;;;;4919467;29;20090;-77
2022/11/06 08:27:39;;;;;;;7.60;2.50;;;;;;;;;;4919878;29;20126;-77
2022/11/06 08:30:05;;;;;;;16.38;3.40;;;;;;;;;;4920148;29;20055;-77
2022/11/06 08:32:31;;;;;;;13.35;2.35;;;;;;;;;;4919823;29;20119;-76
2022/11/06 08:34:58;;;;;;;20.52;3.78;;;;;;;;;;4919219;29;20388;-76
2022/11/06 08:37:24;;;;;;;3.58;2.55;;;;;;;;;;4919472;29;20047;-76
2022/11/06 08:39:50;;;;;;;3.67;2.53;;;;;;;;;;4918808;29;20072;-76
2022/11/06 08:42:16;;;;;;;3.03;1.60;;;;;;;;;;4919348;29;20067;-77
2022/11/06 08:44:42;;;;;;;18.88;2.03;;;;;;;;;;4919563;29;20051;-77
2022/11/06 08:47:09;;;;;;;3.70;1.60;;;;;;;;;;4918591;29;20044;-76
2022/11/06 08:49:35;;;;;;;8.25;1.60;;;;;;;;;;4919636;29;20052;-76
2022/11/06 08:52:01;;;;;;;9.75;1.88;;;;;;;;;;4919488;29;20044;-76
2022/11/06 08:54:27;;;;;;;2.03;1.17;;;;;;;;;;4918993;29;20043;-76
2022/11/06 08:56:53;;;;;;;2.97;0.90;;;;;;;;;;4917817;29;20048;-76
2022/11/06 08:59:19;;;;;;;1.55;1.20;;;;;;;;;;4918332;29;20040;-76
2022/11/06 09:01:45;;;;;;;2.75;1.20;;;;;;;;;;4918523;29;20048;-77
2022/11/06 09:04:11;;;;;;;2.80;1.65;;;;;;;;;;4915722;29;20048;-77
2022/11/06 09:06:38;;;;;;;2.17;1.48;;;;;;;;;;4912000;29;20075;-76
2022/11/06 09:09:04;;;;;;;2.75;1.52;;;;;;;;;;4916274;29;20040;-77
2022/11/06 09:11:30;;;;;;;2.10;1.33;;;;;;;;;;4914489;29;20043;-76
2022/11/06 09:13:57;;;;;;;2.65;1.10;;;;;;;;;;4918001;29;20036;-76
2022/11/06 09:16:25;;;;;;;2.75;1.30;;;;;;;;;;4915345;29;20083;-76
2022/11/06 09:18:53;;;;;;;9.52;1.70;;;;;;;;;;4916041;29;20036;-77
2022/11/06 09:21:19;;;;;;;4.43;1.60;;;;;;;;;;4917284;29;20035;-76
2022/11/06 09:23:47;;;;;;;6.30;2.03;;;;;;;;;;4918163;29;20075;-77
2022/11/06 09:26:14;;;;;;;2.92;2.10;;;;;;;;;;4919744;29;20051;-75
2022/11/06 09:28:40;;;;;;;3.47;2.15;;;;;;;;;;4918231;29;20051;-77
2022/11/06 09:31:06;;;;;;;6.63;2.90;;;;;;;;;;4918376;29;20491;-77
2022/11/06 09:33:33;;;;;;;5.32;2.80;;;;;;;;;;4917546;29;20036;-76
2022/11/06 09:35:59;;;;;;;5.70;3.28;;;;;;;;;;4918499;29;20132;-77
2022/11/06 09:38:25;;;;;;;8.13;2.83;;;;;;;;;;4917070;29;20103;-75
2022/11/06 09:41:12;;;;;;;7.60;3.10;;;;;;;;;;4917932;29;20074;-77
2022/11/06 09:43:47;;;;;;;7.55;2.50;;;;;;;;;;4917305;29;20099;-75
2022/11/06 09:46:33;;;;;;;11.93;2.88;;;;;;;;;;4917856;29;20126;-76
2022/11/06 09:49:25;;;;;;;5.57;2.58;;;;;;;;;;4918135;29;20059;-76
2022/11/06 09:51:58;;;;;;;8.68;3.42;;;;;;;;;;4919895;29;20066;-76
2022/11/06 09:54:41;;;;;;;5.95;2.92;;;;;;;;;;4918098;29;20127;-76
2022/11/06 09:57:15;;;;;;;4.25;2.53;;;;;;;;;;4917207;29;20051;-75
2022/11/06 09:59:41;;;;;;;6.65;2.80;;;;;;;;;;4914036;29;20104;-76
2022/11/06 10:02:26;;;;;;;2.92;1.95;;;;;;;;;;4909193;29;20044;-77
2022/11/06 10:04:55;;;;;;;4.97;1.70;;;;;;;;;;4909582;29;20039;-76
2022/11/06 10:07:27;;;;;;;3.45;2.13;;;;;;;;;;4914886;29;20087;-77
2022/11/06 10:09:54;;;;;;;4.32;2.00;;;;;;;;;;4913126;29;20056;-76
2022/11/06 10:12:26;;;;;;;3.85;2.25;;;;;;;;;;4911846;29;20048;-78
2022/11/06 10:15:11;;;;;;;4.63;1.55;;;;;;;;;;4911593;29;20048;-76
2022/11/06 10:17:37;;;;;;;4.07;1.95;;;;;;;;;;4913157;29;20114;-76
2022/11/06 10:20:18;;;;;;;2.58;1.23;;;;;;;;;;4909041;29;20129;-76
2022/11/06 10:22:53;;;;;;;3.72;1.30;;;;;;;;;;4908625;29;20040;-75
2022/11/06 10:25:20;;;;;;;4.30;1.70;;;;;;;;;;4910904;29;20056;-76
2022/11/06 10:28:06;;;;;;;3.67;1.30;;;;;;;;;;4914496;29;20495;-77
2022/11/06 10:30:41;;;;;;;3.13;1.30;;;;;;;;;;4940594;29;20048;-75
2022/11/06 10:33:15;;;;;;;5.75;1.30;;;;;;;;;;4914985;29;20048;-76
2022/11/06 10:35:44;;;;;;;2.83;1.20;;;;;;;;;;4916835;29;20053;-76
2022/11/06 10:38:15;;;;;;;3.92;1.13;;;;;;;;;;4913631;29;20123;-76
2022/11/06 10:40:47;;;;;;;2.47;1.20;;;;;;;;;;4912414;29;20461;-76
2022/11/06 10:43:30;;;;;;;1.95;1.10;;;;;;;;;;4916289;29;20063;-76
2022/11/06 10:46:16;;;;;;;4.57;1.17;;;;;;;;;;4913605;29;20059;-75
2022/11/06 10:48:47;;;;;;;5.22;0.93;;;;;;;;;;4905214;29;20058;-76
2022/11/06 10:51:13;;;;;;;;;;;;;;;;;;4917328;29;20040;-75
2022/11/06 10:53:52;;;;;;;2.65;0.77;;;;;;;;;;4915691;29;20386;-75
2022/11/06 10:56:18;;;;;;;4.53;0.85;;;;;;;;;;4917824;29;20051;-75
2022/11/06 10:58:45;;;;;;;1.98;0.73;;;;;;;;;;4919233;29;20065;-74
2022/11/06 11:01:13;;;;;;;2.63;0.60;;;;;;;;;;4915702;29;20080;-74
2022/11/06 11:03:41;;;;;;;6.20;1.10;;;;;;;;;;4917123;29;20067;-76
2022/11/06 11:06:08;;;;;;;0.77;0.57;;;;;;;;;;4916450;29;20531;-77
2022/11/06 11:08:35;;;;;;;2.42;0.80;;;;;;;;;;4914438;29;20044;-75
2022/11/06 11:11:21;;;;;;;2.95;0.68;;;;;;;;;;4904718;29;20040;-74
2022/11/06 11:14:10;;;;;;;1.50;0.65;;;;;;;;;;4906549;29;20051;-75
2022/11/06 11:16:40;;;;;;;2.95;0.60;;;;;;;;;;4920578;29;20052;-75
2022/11/06 11:19:22;;;;;;;3.75;1.10;;;;;;;;;;4919592;29;20078;-76
2022/11/06 11:21:59;;;;;;;2.60;0.50;;;;;;;;;;4920161;29;20071;-75
2022/11/06 11:24:25;;;;;;;2.33;0.77;;;;;;;;;;4918127;29;20134;-75
2022/11/06 11:26:57;;;;;;;3.13;0.80;;;;;;;;;;4919719;29;20040;-75
2022/11/06 11:29:44;;;;;;;2.67;0.88;;;;;;;;;;4919561;29;20545;-75
2022/11/06 11:32:13;;;;;;;2.50;0.63;;;;;;;;;;4919741;29;20036;-75
2022/11/06 11:34:44;;;;;;;2.58;1.13;;;;;;;;;;4919698;29;20189;-75
2022/11/06 11:37:21;;;;;;;4.20;0.95;;;;;;;;;;4919279;29;20055;-75
2022/11/06 11:39:47;;;;;;;1.80;0.85;;;;;;;;;;4918800;29;20127;-75
2022/11/06 11:42:21;;;;;;;1.77;0.88;;;;;;;;;;4918172;29;20151;-75
2022/11/06 11:44:47;;;;;;;2.63;0.73;;;;;;;;;;4900708;29;20080;-75
2022/11/06 11:47:23;;;;;;;1.80;0.63;;;;;;;;;;4921027;29;20058;-75
2022/11/06 11:49:49;;;;;;;2.25;0.70;;;;;;;;;;4938855;29;20103;-75
2022/11/06 11:52:20;;;;;;;1.13;0.50;;;;;;;;;;4923809;29;20048;-76
2022/11/06 11:54:48;;;;;;;2.05;0.77;;;;;;;;;;4917948;29;20068;-75
2022/11/06 11:57:19;;;;;;;1.92;0.65;;;;;;;;;;4919672;29;20046;-75
2022/11/06 11:59:51;;;;;;;2.40;0.63;;;;;;;;;;4928820;29;20056;-75
2022/11/06 12:02:17;;;;;;;0.88;0.60;;;;;;;;;;4929803;29;20583;-75
2022/11/06 12:04:45;;;;;;;1.83;0.77;;;;;;;;;;4917708;29;20079;-76
2022/11/06 12:07:23;;;;;;;4.70;0.90;;;;;;;;;;4914208;29;20139;-75
2022/11/06 12:09:49;;;;;;;3.72;0.70;;;;;;;;;;4917028;29;20043;-75
2022/11/06 12:12:47;;;;;;;0.95;0.65;;;;;;;;;;4918667;29;20083;-75
2022/11/06 12:15:32;;;;;;;1.73;0.60;;;;;;;;;;4906609;29;20051;-75
2022/11/06 12:18:19;;;;;;;1.13;0.70;;;;;;;;;;4918667;29;20044;-75
2022/11/06 12:20:57;;;;;;;1.75;0.68;;;;;;;;;;4903559;29;20136;-75
2022/11/06 12:23:29;;;;;;;3.03;0.80;;;;;;;;;;4918652;29;20051;-75
2022/11/06 12:26:07;;;;;;;5.10;0.85;;;;;;;;;;4912834;29;20543;-75
2022/11/06 12:28:35;;;;;;;1.20;0.60;;;;;;;;;;4918447;29;20044;-75
2022/11/06 12:31:04;;;;;;;1.90;0.80;;;;;;;;;;4918599;29;20040;-75
2022/11/06 12:33:32;;;;;;;2.00;0.90;;;;;;;;;;4907222;29;20055;-75
2022/11/06 12:36:01;;;;;;;3.40;0.88;;;;;;;;;;4907602;29;20048;-75
2022/11/06 12:38:46;;;;;;;3.65;0.95;;;;;;;;;;4918558;29;20100;-75
2022/11/06 12:41:32;;;;;;;2.47;1.00;;;;;;;;;;4917995;29;20131;-75
2022/11/06 12:43:58;;;;;;;3.53;0.60;;;;;;;;;;4918289;29;20104;-75
2022/11/06 12:46:43;;;;;;;3.67;0.90;;;;;;;;;;4917754;29;20568;-75
2022/11/06 12:49:10;;;;;;;5.70;1.70;;;;;;;;;;4918423;29;20052;-75
2022/11/06 12:51:54;;;;;;;2.40;0.95;;;;;;;;;;4918058;29;20512;-75
2022/11/06 12:54:28;;;;;;;4.40;1.48;;;;;;;;;;4916755;29;20044;-75
2022/11/06 12:57:13;;;;;;;4.22;1.70;;;;;;;;;;4909941;29;20056;-75
2022/11/06 13:00:03;;;;;;;2.85;0.80;;;;;;;;;;4911336;29;20058;-75
2022/11/06 13:02:38;;;;;;;2.63;0.80;;;;;;;;;;4912640;29;20044;-76
2022/11/06 13:05:08;;;;;;;2.35;0.73;;;;;;;;;;4917139;29;20044;-75
2022/11/06 13:07:59;;;;;;;2.55;0.80;;;;;;;;;;4917518;29;20048;-74
2022/11/06 13:10:25;;;;;;;;;;;;;;;;;;4919557;29;20110;-76
2022/11/06 13:13:00;;;;;;;4.20;0.80;;;;;;;;;;4913994;29;19919;-76
2022/11/06 13:15:30;;;;;;;2.63;0.90;;;;;;;;;;4915109;29;20048;-75
2022/11/06 13:18:06;;;;;;;4.10;0.90;;;;;;;;;;4918086;29;20040;-74
2022/11/06 13:20:42;;;;;;;2.47;1.02;;;;;;;;;;4916972;29;20040;-74
2022/11/06 13:23:27;;;;;;;3.50;1.02;;;;;;;;;;4916885;29;20072;-75
2022/11/06 13:26:02;;;;;;;2.30;1.38;;;;;;;;;;4917435;29;20515;-75
2022/11/06 13:28:31;;;;;;;3.25;1.00;;;;;;;;;;4916975;29;20127;-74
2022/11/06 13:30:58;;;;;;;1.80;0.82;;;;;;;;;;4915288;29;20054;-74
2022/11/06 13:33:32;;;;;;;3.97;0.93;;;;;;;;;;4912310;29;20039;-74
2022/11/06 13:35:59;;;;;;;7.55;2.10;;;;;;;;;;4916646;29;20048;-75
2022/11/06 13:38:29;;;;;;;3.85;1.50;;;;;;;;;;4914451;29;20043;-73
2022/11/06 13:41:02;;;;;;;3.55;1.38;;;;;;;;;;4917718;29;20044;-74
2022/11/06 13:43:31;;;;;;;2.17;1.02;;;;;;;;;;4916337;29;20052;-76
2022/11/06 13:46:09;;;;;;;2.83;1.20;;;;;;;;;;4907464;29;20056;-72
2022/11/06 13:48:54;;;;;;;3.80;1.33;;;;;;;;;;4916450;29;20508;-74
2022/11/06 13:51:39;;;;;;;3.60;1.40;;;;;;;;;;4916362;29;20048;-72
2022/11/06 13:54:11;;;;;;;2.83;1.10;;;;;;;;;;4916398;29;20100;-73
2022/11/06 13:56:56;;;;;;;2.10;0.90;;;;;;;;;;4915991;29;20051;-74
2022/11/06 13:59:34;;;;;;;1.85;0.90;;;;;;;;;;4916078;29;20047;-75
2022/11/06 14:02:21;;;;;;;4.28;1.17;;;;;;;;;;4917070;29;20050;-74
2022/11/06 14:04:47;;;;;;;2.88;1.02;;;;;;;;;;4916764;29;20058;-76
2022/11/06 14:07:15;;;;;;;2.35;0.90;;;;;;;;;;4922430;29;20048;-77
2022/11/06 14:09:44;;;;;;;3.03;0.80;;;;;;;;;;4921983;29;20123;-78
2022/11/06 14:12:14;;;;;;;1.73;1.15;;;;;;;;;;4923447;29;20036;-76
2022/11/06 14:14:40;;;;;;;2.88;1.00;;;;;;;;;;4922969;29;20048;-77
2022/11/06 14:17:25;;;;;;;2.97;0.85;;;;;;;;;;4921052;29;20500;-78
2022/11/06 14:19:51;;;;;;;0.80;0.70;;;;;;;;;;4922083;29;20115;-76
2022/11/06 14:22:25;;;;;;;2.63;0.75;;;;;;;;;;4923882;29;20039;-76
2022/11/06 14:24:52;;;;;;;2.17;1.15;;;;;;;;;;4926171;29;20119;-77
2022/11/06 14:27:18;;;;;;;2.47;1.17;;;;;;;;;;4932043;29;20054;-77
2022/11/06 14:29:55;;;;;;;3.90;0.88;;;;;;;;;;4913308;29;20574;-76
2022/11/06 14:32:22;;;;;;;1.45;0.50;;;;;;;;;;4921862;29;20077;-76
2022/11/06 14:34:48;;;;;;;1.58;0.65;;;;;;;;;;4923726;29;20048;-76
2022/11/06 14:37:17;;;;;;;0.93;0.70;;;;;;;;;;4922473;29;20047;-75
2022/11/06 14:39:55;;;;;;;0.73;0.65;;;;;;;;;;4922718;29;20048;-75
2022/11/06 14:42:23;;;;;;;1.10;0.60;;;;;;;;;;4923262;29;20403;-75
2022/11/06 14:44:53;;;;;;;1.73;0.82;;;;;;;;;;4924048;29;20121;-75
2022/11/06 14:47:40;;;;;;;2.38;1.00;;;;;;;;;;4922513;29;20591;-75
2022/11/06 14:50:27;;;;;;;1.70;0.80;;;;;;;;;;4914406;29;20051;-75
2022/11/06 14:52:56;;;;;;;1.23;0.70;;;;;;;;;;4914352;29;20508;-75
2022/11/06 14:55:40;;;;;;;1.45;0.80;;;;;;;;;;4913557;29;20591;-75
2022/11/06 14:58:14;;;;;;;1.50;0.70;;;;;;;;;;4914758;29;20119;-75
2022/11/06 15:00:52;;;;;;;2.38;0.80;;;;;;;;;;4943327;29;20127;-75
2022/11/06 15:03:44;;;;;;;2.97;0.90;;;;;;;;;;4916221;29;20040;-75
2022/11/06 15:06:16;;;;;;;2.35;1.30;;;;;;;;;;4911968;29;20135;-76
2022/11/06 15:08:48;;;;;;;2.58;1.13;;;;;;;;;;4923184;29;20048;-76
2022/11/06 15:11:42;;;;;;;3.42;1.02;;;;;;;;;;4922541;29;20036;-77
2022/11/06 15:14:08;;;;;;;2.80;0.90;;;;;;;;;;4922667;29;20046;-75
2022/11/06 15:16:44;;;;;;;0.98;0.90;;;;;;;;;;4918579;29;20102;-75